createdAt,value
2022-09-14T00:01:26.506Z,15.91
2022-09-14T00:04:05.461Z,15.90
2022-09-14T00:06:33.584Z,15.88
2022-09-14T00:09:01.423Z,15.86
2022-09-14T00:11:32.113Z,15.81
2022-09-14T00:14:01.341Z,15.85
2022-09-14T00:16:31.088Z,15.83
2022-09-14T00:19:01.104Z,15.83
2022-09-14T00:21:29.149Z,15.84
2022-09-14T00:23:56.370Z,15.77
2022-09-14T00:26:23.984Z,15.87
2022-09-14T00:28:56.697Z,15.73
2022-09-14T00:31:25.890Z,15.85
2022-09-14T00:33:53.787Z,15.86
2022-09-14T00:36:27.183Z,15.77
2022-09-14T00:38:56.872Z,15.85
2022-09-14T00:41:27.460Z,15.80
2022-09-14T00:44:15.653Z,15.77
2022-09-14T00:46:46.562Z,15.76
2022-09-14T00:49:31.321Z,15.75
2022-09-14T00:52:16.554Z,15.65
2022-09-14T00:54:49.894Z,15.73
2022-09-14T00:57:18.544Z,15.69
2022-09-14T00:59:48.600Z,15.72
2022-09-14T01:02:16.331Z,15.73
2022-09-14T01:04:44.730Z,15.69
2022-09-14T01:07:33.043Z,15.67
2022-09-14T01:10:22.037Z,15.64
2022-09-14T01:13:07.997Z,15.61
2022-09-14T01:15:53.990Z,15.57
2022-09-14T01:18:46.336Z,15.56
2022-09-14T01:21:21.971Z,15.41
2022-09-14T01:23:58.207Z,15.38
2022-09-14T01:26:37.080Z,15.57
2022-09-14T01:29:19.184Z,15.55
2022-09-14T01:32:07.222Z,15.56
2022-09-14T01:34:46.613Z,15.22
2022-09-14T01:37:19.721Z,15.50
2022-09-14T01:39:54.408Z,15.30
2022-09-14T01:42:26.472Z,15.49
2022-09-14T01:44:59.274Z,15.56
2022-09-14T01:47:40.460Z,15.54
2022-09-14T01:50:34.253Z,15.56
2022-09-14T01:53:20.363Z,15.51
2022-09-14T01:56:11.133Z,15.42
2022-09-14T01:58:45.523Z,15.41
2022-09-14T02:01:19.343Z,15.43
2022-09-14T02:03:54.760Z,15.36
2022-09-14T02:06:34.614Z,15.35
2022-09-14T02:09:03.350Z,15.19
2022-09-14T02:11:30.327Z,15.30
2022-09-14T02:13:57.531Z,15.30
2022-09-14T02:16:26.170Z,15.07
2022-09-14T02:18:53.856Z,15.24
2022-09-14T02:21:25.798Z,15.27
2022-09-14T02:23:54.059Z,15.30
2022-09-14T02:26:23.240Z,15.28
2022-09-14T02:28:50.956Z,15.23
2022-09-14T02:31:57.905Z,15.31
2022-09-14T02:34:32.833Z,15.27
2022-09-14T02:37:22.517Z,15.25
2022-09-14T02:40:06.890Z,15.23
2022-09-14T02:42:35.006Z,15.21
2022-09-14T02:45:06.243Z,15.19
2022-09-14T02:47:55.955Z,15.22
2022-09-14T02:50:26.003Z,15.23
2022-09-14T02:53:38.398Z,15.19
2022-09-14T02:56:09.092Z,15.19
2022-09-14T02:58:40.909Z,15.18
2022-09-14T03:01:09.985Z,15.19
2022-09-14T03:03:37.482Z,15.19
2022-09-14T03:06:05.893Z,15.14
2022-09-14T03:08:33.572Z,15.13
2022-09-14T03:11:00.592Z,15.12
2022-09-14T03:13:28.141Z,15.12
2022-09-14T03:15:55.308Z,14.92
2022-09-14T03:18:22.463Z,15.03
2022-09-14T03:20:49.540Z,14.97
2022-09-14T03:23:16.533Z,15.06
2022-09-14T03:25:45.229Z,15.07
2022-09-14T03:28:13.552Z,15.08
2022-09-14T03:30:40.747Z,15.10
2022-09-14T03:33:07.910Z,14.83
2022-09-14T03:35:35.209Z,15.12
2022-09-14T03:38:03.473Z,15.12
2022-09-14T03:40:31.309Z,15.10
2022-09-14T03:42:58.699Z,15.06
2022-09-14T03:45:25.990Z,15.06
2022-09-14T03:47:53.001Z,15.00
2022-09-14T03:50:20.367Z,14.97
2022-09-14T03:52:47.937Z,14.84
2022-09-14T03:55:15.620Z,14.91
2022-09-14T03:57:42.691Z,14.73
2022-09-14T04:00:11.535Z,14.87
2022-09-14T04:02:39.476Z,14.67
2022-09-14T04:05:07.322Z,14.82
2022-09-14T04:07:34.342Z,14.80
2022-09-14T04:10:01.471Z,14.73
2022-09-14T04:12:28.612Z,14.72
2022-09-14T04:14:55.701Z,14.53
2022-09-14T04:17:25.392Z,14.71
2022-09-14T04:19:52.590Z,14.55
2022-09-14T04:22:19.630Z,14.63
2022-09-14T04:24:46.660Z,14.59
2022-09-14T04:27:13.769Z,14.31
2022-09-14T04:29:40.870Z,14.60
2022-09-14T04:32:07.996Z,14.59
2022-09-14T04:34:35.872Z,14.41
2022-09-14T04:37:02.915Z,14.54
2022-09-14T04:39:30.521Z,14.51
2022-09-14T04:41:57.764Z,14.56
2022-09-14T04:44:24.959Z,14.43
2022-09-14T04:46:52.673Z,14.08
2022-09-14T04:49:21.842Z,14.32
2022-09-14T04:51:49.302Z,14.36
2022-09-14T04:54:18.062Z,14.44
2022-09-14T04:56:45.596Z,14.26
2022-09-14T04:59:12.879Z,14.36
2022-09-14T05:01:43.015Z,14.27
2022-09-14T05:04:12.154Z,14.12
2022-09-14T05:06:41.620Z,14.34
2022-09-14T05:09:16.222Z,14.40
2022-09-14T05:11:43.791Z,14.37
2022-09-14T05:14:14.883Z,14.35
2022-09-14T05:16:43.812Z,14.32
2022-09-14T05:19:17.255Z,14.35
2022-09-14T05:21:45.751Z,14.37
2022-09-14T05:24:15.666Z,14.30
2022-09-14T05:26:44.241Z,14.40
2022-09-14T05:29:17.255Z,14.50
2022-09-14T05:31:45.258Z,14.55
2022-09-14T05:34:12.917Z,14.59
2022-09-14T05:36:40.736Z,14.59
2022-09-14T05:39:08.419Z,14.72
2022-09-14T05:41:36.049Z,14.78
2022-09-14T05:44:03.320Z,14.83
2022-09-14T05:46:30.587Z,14.67
2022-09-14T05:48:58.072Z,14.92
2022-09-14T05:51:27.131Z,15.00
2022-09-14T05:53:56.980Z,15.08
2022-09-14T05:56:26.092Z,15.14
2022-09-14T05:58:53.966Z,15.27
2022-09-14T06:01:22.718Z,15.29
2022-09-14T06:03:51.066Z,15.33
2022-09-14T06:06:19.841Z,15.37
2022-09-14T06:08:50.509Z,15.11
2022-09-14T06:11:20.680Z,15.51
2022-09-14T06:13:48.756Z,15.52
2022-09-14T06:16:18.312Z,15.44
2022-09-14T06:18:46.762Z,15.40
2022-09-14T06:21:16.876Z,15.32
2022-09-14T06:23:44.629Z,15.32
2022-09-14T06:26:12.332Z,15.37
2022-09-14T06:28:39.920Z,15.36
2022-09-14T06:31:10.295Z,15.35
2022-09-14T06:33:37.443Z,15.30
2022-09-14T06:36:12.475Z,15.29
2022-09-14T06:38:41.174Z,15.24
2022-09-14T06:41:10.407Z,15.27
2022-09-14T06:43:39.346Z,15.23
2022-09-14T06:46:07.817Z,15.24
2022-09-14T06:48:38.535Z,15.28
2022-09-14T06:51:31.879Z,15.32
2022-09-14T06:54:00.473Z,15.34
2022-09-14T06:56:29.399Z,15.38
2022-09-14T06:58:58.376Z,15.38
2022-09-14T07:01:27.153Z,15.41
2022-09-14T07:03:54.759Z,15.45
2022-09-14T07:06:39.190Z,15.48
2022-09-14T07:09:06.304Z,15.47
2022-09-14T07:11:33.533Z,15.56
2022-09-14T07:14:02.122Z,15.61
2022-09-14T07:16:32.609Z,15.62
2022-09-14T07:19:04.280Z,15.70
2022-09-14T07:21:33.329Z,15.83
2022-09-14T07:24:01.090Z,15.91
2022-09-14T07:26:30.931Z,15.95
2022-09-14T07:29:11.381Z,16.00
2022-09-14T07:31:40.730Z,16.12
2022-09-14T07:34:08.252Z,16.18
2022-09-14T07:36:35.968Z,16.26
2022-09-14T07:39:04.946Z,16.37
2022-09-14T07:41:34.406Z,16.54
2022-09-14T07:44:02.531Z,16.71
2022-09-14T07:46:30.795Z,16.84
2022-09-14T07:48:58.700Z,17.03
2022-09-14T07:51:26.438Z,17.21
2022-09-14T07:53:53.835Z,17.40
2022-09-14T07:56:22.132Z,17.57
2022-09-14T07:58:53.987Z,17.76
2022-09-14T08:01:22.389Z,17.91
2022-09-14T08:03:49.848Z,18.07
2022-09-14T08:06:18.471Z,18.20
2022-09-14T08:08:47.694Z,18.35
2022-09-14T08:11:14.652Z,18.51
2022-09-14T08:13:43.261Z,18.61
2022-09-14T08:16:10.682Z,18.73
2022-09-14T08:18:38.141Z,18.91
2022-09-14T08:21:15.773Z,18.95
2022-09-14T08:23:43.211Z,18.93
2022-09-14T08:26:11.732Z,18.94
2022-09-14T08:28:38.734Z,18.99
2022-09-14T08:31:07.069Z,18.94
2022-09-14T08:33:34.731Z,18.86
2022-09-14T08:36:01.755Z,18.69
2022-09-14T08:38:28.990Z,18.53
2022-09-14T08:40:56.610Z,18.50
2022-09-14T08:43:25.083Z,18.51
2022-09-14T08:45:55.442Z,18.49
2022-09-14T08:48:31.885Z,18.42
2022-09-14T08:50:58.928Z,18.39
2022-09-14T08:53:25.952Z,18.42
2022-09-14T08:55:54.751Z,18.46
2022-09-14T08:58:35.073Z,18.46
2022-09-14T09:01:31.442Z,18.51
2022-09-14T09:04:13.869Z,18.45
2022-09-14T09:06:49.064Z,18.37
2022-09-14T09:09:32.939Z,18.21
2022-09-14T09:12:00.232Z,18.27
2022-09-14T09:14:33.921Z,18.45
2022-09-14T09:17:03.074Z,18.54
2022-09-14T09:20:02.167Z,18.71
2022-09-14T09:22:33.713Z,19.02
2022-09-14T09:25:00.900Z,19.28
2022-09-14T09:27:28.210Z,19.47
2022-09-14T09:29:55.221Z,19.64
2022-09-14T09:32:24.534Z,19.51
2022-09-14T09:35:15.762Z,19.17
2022-09-14T09:37:50.914Z,18.85
2022-09-14T09:40:20.191Z,18.71
2022-09-14T09:43:06.163Z,18.72
2022-09-14T09:46:05.156Z,18.79
2022-09-14T09:48:43.540Z,18.79
2022-09-14T09:51:23.538Z,18.79
2022-09-14T09:53:53.640Z,18.86
2022-09-14T09:56:24.669Z,18.87
2022-09-14T09:58:52.399Z,18.67
2022-09-14T10:01:28.702Z,18.50
2022-09-14T10:04:14.660Z,18.35
2022-09-14T10:06:46.298Z,18.22
2022-09-14T10:09:14.705Z,18.09
2022-09-14T10:11:41.959Z,18.03
2022-09-14T10:14:41.503Z,17.93
2022-09-14T10:17:16.772Z,17.83
2022-09-14T10:19:54.759Z,17.77
2022-09-14T10:22:35.295Z,17.84
2022-09-14T10:25:05.230Z,18.18
2022-09-14T10:27:38.235Z,18.29
2022-09-14T10:30:17.581Z,18.29
2022-09-14T10:32:49.109Z,18.58
2022-09-14T10:35:17.567Z,18.81
2022-09-14T10:37:53.971Z,18.86
2022-09-14T10:40:25.682Z,18.81
2022-09-14T10:42:52.736Z,18.81
2022-09-14T10:45:28.703Z,18.79
2022-09-14T10:48:12.910Z,18.77
2022-09-14T10:50:58.886Z,18.67
2022-09-14T10:53:29.313Z,18.83
2022-09-14T10:56:06.411Z,19.06
2022-09-14T10:58:53.670Z,19.37
2022-09-14T11:01:26.094Z,19.70
2022-09-14T11:03:56.132Z,19.98
2022-09-14T11:06:44.514Z,20.07
2022-09-14T11:09:11.443Z,19.99
2022-09-14T11:11:38.513Z,19.99
2022-09-14T11:14:17.629Z,20.13
2022-09-14T11:16:47.890Z,20.28
2022-09-14T11:19:14.878Z,20.48
2022-09-14T11:21:51.821Z,20.64
2022-09-14T11:24:19.303Z,20.59
2022-09-14T11:26:53.330Z,20.55
2022-09-14T11:29:32.352Z,20.46
2022-09-14T11:32:19.308Z,20.13
2022-09-14T11:34:54.989Z,19.73
2022-09-14T11:37:26.314Z,19.67
2022-09-14T11:40:03.808Z,19.72
2022-09-14T11:42:37.943Z,19.86
2022-09-14T11:45:13.913Z,20.04
2022-09-14T11:47:45.305Z,20.27
2022-09-14T11:50:29.051Z,20.33
2022-09-14T11:53:01.440Z,20.29
2022-09-14T11:55:28.862Z,20.25
2022-09-14T11:57:57.370Z,20.28
2022-09-14T12:00:24.369Z,20.37
2022-09-14T12:02:58.957Z,20.57
2022-09-14T12:05:27.650Z,20.68
2022-09-14T12:07:55.693Z,20.69
2022-09-14T12:10:22.710Z,20.58
2022-09-14T12:12:49.587Z,20.50
2022-09-14T12:15:19.387Z,20.44
2022-09-14T12:17:46.335Z,20.40
2022-09-14T12:20:27.940Z,20.41
2022-09-14T12:23:15.309Z,20.32
2022-09-14T12:25:54.052Z,20.21
2022-09-14T12:28:38.439Z,20.18
2022-09-14T12:31:08.125Z,19.96
2022-09-14T12:33:35.293Z,19.76
2022-09-14T12:36:05.028Z,19.58
2022-09-14T12:38:32.166Z,19.39
2022-09-14T12:40:59.098Z,19.28
2022-09-14T12:43:38.312Z,19.20
2022-09-14T12:46:08.286Z,19.16
2022-09-14T12:48:47.386Z,19.11
2022-09-14T12:51:32.862Z,19.10
2022-09-14T12:54:08.959Z,19.10
2022-09-14T12:56:50.970Z,19.10
2022-09-14T12:59:25.085Z,19.11
2022-09-14T13:02:10.709Z,19.15
2022-09-14T13:04:38.901Z,19.12
2022-09-14T13:07:07.829Z,19.11
2022-09-14T13:09:35.036Z,19.09
2022-09-14T13:12:05.240Z,19.14
2022-09-14T13:14:34.770Z,19.18
2022-09-14T13:17:03.682Z,19.19
2022-09-14T13:19:31.949Z,19.28
2022-09-14T13:22:00.272Z,19.36
2022-09-14T13:24:27.396Z,19.45
2022-09-14T13:26:56.456Z,19.52
2022-09-14T13:29:25.077Z,19.59
2022-09-14T13:31:51.973Z,19.61
2022-09-14T13:34:29.143Z,19.61
2022-09-14T13:36:56.514Z,19.60
2022-09-14T13:39:29.755Z,19.64
2022-09-14T13:41:57.152Z,19.65
2022-09-14T13:44:27.592Z,19.52
2022-09-14T13:46:55.963Z,19.44
2022-09-14T13:49:23.236Z,19.35
2022-09-14T13:51:50.714Z,19.29
2022-09-14T13:54:19.657Z,19.19
2022-09-14T13:56:47.545Z,19.17
2022-09-14T13:59:19.066Z,19.16
2022-09-14T14:01:54.315Z,19.14
2022-09-14T14:04:28.151Z,19.13
2022-09-14T14:07:04.284Z,19.16
2022-09-14T14:09:51.594Z,19.12
2022-09-14T14:12:26.862Z,19.08
2022-09-14T14:14:58.671Z,19.02
2022-09-14T14:17:25.684Z,18.98
2022-09-14T14:19:53.776Z,18.92
2022-09-14T14:22:24.663Z,18.95
2022-09-14T14:27:42.124Z,19.05
2022-09-14T14:30:30.649Z,19.09
2022-09-14T14:32:58.572Z,19.12
2022-09-14T14:35:31.115Z,19.08
2022-09-14T14:37:58.610Z,19.01
2022-09-14T14:40:27.779Z,18.97
2022-09-14T14:42:55.450Z,18.94
2022-09-14T14:45:26.889Z,18.91
2022-09-14T14:47:54.923Z,18.88
2022-09-14T14:50:34.401Z,18.84
2022-09-14T14:53:01.727Z,18.81
2022-09-14T14:55:31.435Z,18.78
2022-09-14T14:58:00.886Z,18.79
2022-09-14T15:00:28.754Z,18.74
2022-09-14T15:02:55.929Z,18.71
2022-09-14T15:05:23.031Z,18.71
2022-09-14T15:07:52.750Z,18.70
2022-09-14T15:10:20.340Z,18.72
2022-09-14T15:12:47.345Z,18.74
2022-09-14T15:15:15.630Z,18.69
2022-09-14T15:17:42.673Z,18.66
2022-09-14T15:20:10.103Z,18.61
2022-09-14T15:22:37.455Z,18.56
2022-09-14T15:25:05.323Z,18.55
2022-09-14T15:27:32.420Z,18.52
2022-09-14T15:29:59.407Z,18.50
2022-09-14T15:32:26.504Z,18.48
2022-09-14T15:34:53.833Z,18.47
2022-09-14T15:37:21.120Z,18.46
2022-09-14T15:39:50.983Z,18.42
2022-09-14T15:42:18.472Z,18.39
2022-09-14T15:44:45.949Z,18.36
2022-09-14T15:47:14.995Z,18.33
2022-09-14T15:49:42.670Z,18.30
2022-09-14T15:52:10.671Z,18.29
2022-09-14T15:54:38.690Z,18.25
2022-09-14T15:57:06.585Z,18.19
2022-09-14T15:59:33.484Z,18.17
2022-09-14T16:02:00.783Z,18.15
2022-09-14T16:04:28.099Z,18.13
2022-09-14T16:06:55.019Z,18.11
2022-09-14T16:09:22.994Z,18.09
2022-09-14T16:11:50.488Z,18.05
2022-09-14T16:14:17.389Z,18.03
2022-09-14T16:16:44.441Z,18.01
2022-09-14T16:19:12.869Z,17.99
2022-09-14T16:21:40.313Z,17.96
2022-09-14T16:24:13.143Z,17.95
2022-09-14T16:26:40.394Z,17.92
2022-09-14T16:29:08.654Z,17.91
2022-09-14T16:31:36.798Z,17.90
2022-09-14T16:34:06.448Z,17.90
2022-09-14T16:36:35.021Z,17.87
2022-09-14T16:39:03.047Z,17.82
2022-09-14T16:41:30.311Z,17.80
2022-09-14T16:43:58.254Z,17.77
2022-09-14T16:46:26.176Z,17.72
2022-09-14T16:48:53.590Z,17.68
2022-09-14T16:51:22.020Z,17.66
2022-09-14T16:53:49.670Z,17.64
2022-09-14T16:56:21.977Z,17.62
2022-09-14T16:58:49.997Z,17.59
2022-09-14T17:01:28.694Z,17.55
2022-09-14T17:03:56.855Z,17.51
2022-09-14T17:06:25.169Z,17.47
2022-09-14T17:08:56.055Z,17.42
2022-09-14T17:11:23.385Z,17.43
2022-09-14T17:13:50.419Z,17.39
2022-09-14T17:16:19.113Z,17.34
2022-09-14T17:18:49.044Z,17.31
2022-09-14T17:21:26.869Z,17.28
2022-09-14T17:23:54.627Z,17.23
2022-09-14T17:26:22.424Z,17.23
2022-09-14T17:28:50.057Z,17.20
2022-09-14T17:31:18.679Z,17.19
2022-09-14T17:33:46.272Z,17.17
2022-09-14T17:36:13.573Z,17.14
2022-09-14T17:38:41.793Z,17.13
2022-09-14T17:41:10.019Z,17.08
2022-09-14T17:43:37.633Z,17.06
2022-09-14T17:46:05.743Z,17.06
2022-09-14T17:48:36.595Z,17.03
2022-09-14T17:51:07.414Z,17.01
2022-09-14T17:53:41.217Z,17.00
2022-09-14T17:56:09.169Z,16.97
2022-09-14T17:58:36.643Z,16.96
2022-09-14T18:01:06.129Z,16.94
2022-09-14T18:03:33.283Z,16.91
2022-09-14T18:06:00.282Z,16.89
2022-09-14T18:08:27.351Z,16.90
2022-09-14T18:10:54.282Z,16.89
2022-09-14T18:13:21.473Z,16.89
2022-09-14T18:15:48.557Z,16.86
2022-09-14T18:18:15.759Z,16.83
2022-09-14T18:20:42.913Z,16.80
2022-09-14T18:23:10.121Z,16.77
2022-09-14T18:25:40.199Z,16.75
2022-09-14T18:28:07.292Z,16.73
2022-09-14T18:30:35.084Z,16.71
2022-09-14T18:33:02.104Z,16.71
2022-09-14T18:35:28.987Z,16.70
2022-09-14T18:37:56.035Z,16.68
2022-09-14T18:40:23.031Z,16.66
2022-09-14T18:42:50.275Z,16.61
2022-09-14T18:45:17.385Z,16.58
2022-09-14T18:47:44.677Z,16.59
2022-09-14T18:50:11.714Z,16.57
2022-09-14T18:52:38.865Z,16.53
2022-09-14T18:55:05.964Z,16.50
2022-09-14T18:57:32.897Z,16.48
2022-09-14T18:59:59.984Z,16.45
2022-09-14T19:02:26.925Z,16.43
2022-09-14T19:04:54.248Z,16.43
2022-09-14T19:07:21.133Z,16.42
2022-09-14T19:09:48.069Z,16.41
2022-09-14T19:12:15.795Z,16.38
2022-09-14T19:14:42.705Z,16.36
2022-09-14T19:17:09.629Z,16.34
2022-09-14T19:19:36.816Z,16.32
2022-09-14T19:22:03.791Z,16.32
2022-09-14T19:24:33.397Z,16.32
2022-09-14T19:27:00.686Z,16.31
2022-09-14T19:29:28.913Z,16.29
2022-09-14T19:31:57.004Z,16.28
2022-09-14T19:34:26.224Z,16.24
2022-09-14T19:36:54.120Z,16.23
2022-09-14T19:39:21.490Z,16.19
2022-09-14T19:41:48.436Z,16.16
2022-09-14T19:44:15.832Z,16.13
2022-09-14T19:46:43.238Z,16.11
2022-09-14T19:49:20.784Z,16.10
2022-09-14T19:51:48.215Z,16.08
2022-09-14T19:54:15.434Z,16.06
2022-09-14T19:56:42.580Z,16.06
2022-09-14T19:59:09.730Z,16.03
2022-09-14T20:01:37.769Z,16.04
2022-09-14T20:04:05.807Z,16.03
2022-09-14T20:06:38.212Z,16.01
2022-09-14T20:09:07.634Z,16.01
2022-09-14T20:11:35.432Z,15.98
2022-09-14T20:14:04.286Z,15.99
2022-09-14T20:16:41.688Z,15.98
2022-09-14T20:19:10.352Z,16.00
2022-09-14T20:21:37.817Z,15.98
2022-09-14T20:24:21.768Z,15.92
2022-09-14T20:26:49.775Z,15.89
2022-09-14T20:29:17.788Z,15.88
2022-09-14T20:31:45.178Z,15.88
2022-09-14T20:34:13.150Z,15.88
2022-09-14T20:36:40.089Z,15.85
2022-09-14T20:39:07.003Z,15.83
2022-09-14T20:41:35.022Z,15.83
2022-09-14T20:44:02.652Z,15.83
2022-09-14T20:46:37.545Z,15.84
2022-09-14T20:49:05.735Z,15.81
2022-09-14T20:51:32.818Z,15.81
2022-09-14T20:53:59.943Z,15.79
2022-09-14T20:56:28.310Z,15.78
2022-09-14T20:58:59.561Z,15.78
2022-09-14T21:01:27.938Z,15.78
2022-09-14T21:03:54.912Z,15.74
2022-09-14T21:06:22.905Z,15.73
2022-09-14T21:08:50.189Z,15.72
2022-09-14T21:11:21.001Z,15.72
2022-09-14T21:13:48.003Z,15.75
2022-09-14T21:16:17.286Z,15.74
2022-09-14T21:18:44.849Z,15.72
2022-09-14T21:21:13.685Z,15.71
2022-09-14T21:23:41.125Z,15.71
2022-09-14T21:26:08.743Z,15.69
2022-09-14T21:28:36.882Z,15.65
2022-09-14T21:31:05.131Z,15.67
2022-09-14T21:33:33.883Z,15.68
2022-09-14T21:36:08.499Z,15.66
2022-09-14T21:38:36.129Z,15.67
2022-09-14T21:41:05.124Z,15.66
2022-09-14T21:43:32.175Z,15.65
2022-09-14T21:45:59.481Z,15.63
2022-09-14T21:48:27.456Z,15.60
2022-09-14T21:51:09.671Z,15.57
2022-09-14T21:53:36.790Z,15.55
2022-09-14T21:56:04.826Z,15.57
2022-09-14T21:58:32.130Z,15.60
2022-09-14T22:00:59.883Z,15.57
2022-09-14T22:03:27.275Z,15.56
2022-09-14T22:05:58.376Z,15.54
2022-09-14T22:08:26.123Z,15.51
2022-09-14T22:10:53.095Z,15.52
2022-09-14T22:13:20.274Z,15.52
2022-09-14T22:15:47.244Z,15.51
2022-09-14T22:18:14.766Z,15.50
2022-09-14T22:20:41.738Z,15.49
2022-09-14T22:23:08.766Z,15.46
2022-09-14T22:25:39.064Z,15.47
2022-09-14T22:28:05.944Z,15.47
2022-09-14T22:30:32.863Z,15.46
2022-09-14T22:32:59.906Z,15.47
2022-09-14T22:35:26.781Z,15.46
2022-09-14T22:37:53.708Z,15.45
2022-09-14T22:40:20.787Z,15.42
2022-09-14T22:42:47.656Z,15.42
2022-09-14T22:45:14.766Z,15.42
2022-09-14T22:47:41.757Z,15.42
2022-09-14T22:50:08.878Z,15.39
2022-09-14T22:52:35.729Z,15.36
2022-09-14T22:55:02.715Z,15.34
2022-09-14T22:57:29.505Z,15.32
2022-09-14T22:59:56.626Z,15.30
2022-09-14T23:02:23.736Z,15.30
2022-09-14T23:04:51.397Z,15.27
2022-09-14T23:07:20.344Z,15.26
2022-09-14T23:09:47.593Z,15.27
2022-09-14T23:12:14.457Z,15.25
2022-09-14T23:14:41.338Z,15.24
2022-09-14T23:17:08.448Z,15.24
2022-09-14T23:19:35.466Z,15.23
2022-09-14T23:22:03.385Z,15.21
2022-09-14T23:24:31.117Z,15.21
2022-09-14T23:26:57.967Z,15.18
2022-09-14T23:29:24.898Z,15.16
2022-09-14T23:31:51.871Z,15.14
2022-09-14T23:34:18.801Z,15.15
2022-09-14T23:36:45.741Z,15.10
2022-09-14T23:39:12.692Z,15.07
2022-09-14T23:41:41.041Z,15.07
2022-09-14T23:44:08.845Z,15.04
2022-09-14T23:46:35.759Z,14.99
2022-09-14T23:49:02.597Z,14.97
2022-09-14T23:51:29.716Z,14.92
2022-09-14T23:53:56.611Z,14.90
2022-09-14T23:56:23.870Z,14.90
2022-09-14T23:58:51.142Z,14.93
